createdAt,value
2022-12-22T00:02:47.206Z,100250.30
2022-12-22T00:08:10.886Z,100233.16
2022-12-22T00:13:35.292Z,100238.43
2022-12-22T00:18:58.751Z,100233.00
2022-12-22T00:24:22.287Z,100226.25
2022-12-22T00:29:47.995Z,100214.27
2022-12-22T00:35:11.645Z,100218.62
2022-12-22T00:40:40.859Z,100217.98
2022-12-22T00:46:04.295Z,100217.29
2022-12-22T00:51:28.684Z,100225.17
2022-12-22T00:56:52.548Z,100223.37
2022-12-22T01:02:16.294Z,100220.23
2022-12-22T01:07:42.984Z,100212.25
2022-12-22T01:13:06.887Z,100206.23
2022-12-22T01:18:30.167Z,100216.96
2022-12-22T01:23:53.984Z,100221.28
2022-12-22T01:29:17.415Z,100204.84
2022-12-22T01:34:40.461Z,100192.41
2022-12-22T01:40:04.084Z,100185.06
2022-12-22T01:45:42.542Z,100181.62
2022-12-22T01:51:06.250Z,100184.28
2022-12-22T01:56:30.900Z,100178.96
2022-12-22T02:01:55.452Z,100169.09
2022-12-22T02:07:21.679Z,100176.13
2022-12-22T02:12:57.328Z,100176.39
2022-12-22T02:18:38.612Z,100165.40
2022-12-22T02:24:14.095Z,100165.32
2022-12-22T02:29:40.757Z,100147.73
2022-12-22T02:35:04.096Z,100153.98
2022-12-22T02:40:48.506Z,100151.23
2022-12-22T02:46:32.421Z,100146.43
2022-12-22T02:51:58.781Z,100137.36
2022-12-22T02:57:25.134Z,100132.46
2022-12-22T03:02:48.845Z,100113.75
2022-12-22T03:08:12.525Z,100118.69
2022-12-22T03:13:35.894Z,100107.74
2022-12-22T03:18:58.962Z,100099.80
2022-12-22T03:24:22.557Z,100095.93
2022-12-22T03:29:27.933Z,100101.35
2022-12-22T03:34:33.543Z,100094.69
2022-12-22T03:39:39.000Z,100091.94
2022-12-22T03:45:02.211Z,100094.30
2022-12-22T03:50:08.521Z,100087.77
2022-12-22T03:55:13.980Z,100080.94
2022-12-22T04:00:20.182Z,100077.20
2022-12-22T04:05:25.714Z,100070.45
2022-12-22T04:10:49.146Z,100063.42
2022-12-22T04:15:54.540Z,100056.28
2022-12-22T04:21:00.004Z,100050.48
2022-12-22T04:26:05.625Z,100039.71
2022-12-22T04:31:11.057Z,100032.70
2022-12-22T04:36:17.559Z,100033.17
2022-12-22T04:41:23.080Z,100025.12
2022-12-22T04:46:28.651Z,100024.44
2022-12-22T04:51:34.328Z,100021.30
2022-12-22T04:56:39.797Z,100018.93
2022-12-22T05:01:45.418Z,100016.56
2022-12-22T05:06:50.973Z,100010.27
2022-12-22T05:11:56.360Z,100002.27
2022-12-22T05:17:01.803Z,99996.30
2022-12-22T05:22:07.278Z,99998.55
2022-12-22T05:27:13.698Z,99984.53
2022-12-22T05:32:19.384Z,99978.44
2022-12-22T05:37:24.787Z,99966.57
2022-12-22T05:42:39.728Z,99958.58
2022-12-22T05:47:47.894Z,99959.44
2022-12-22T05:52:53.360Z,99956.30
2022-12-22T05:58:00.972Z,99954.15
2022-12-22T06:03:06.569Z,99951.28
2022-12-22T06:08:12.222Z,99935.60
2022-12-22T06:13:17.745Z,99937.65
2022-12-22T06:18:23.270Z,99934.54
2022-12-22T06:23:29.066Z,99932.08
2022-12-22T06:28:34.583Z,99926.41
2022-12-22T06:33:40.056Z,99917.44
2022-12-22T06:38:45.499Z,99912.13
2022-12-22T06:43:50.954Z,99917.98
2022-12-22T06:48:56.405Z,99906.86
2022-12-22T06:54:02.010Z,99895.19
2022-12-22T06:59:07.635Z,99892.52
2022-12-22T07:04:16.755Z,99877.88
2022-12-22T07:09:22.229Z,99871.02
2022-12-22T07:14:27.697Z,99875.31
2022-12-22T07:19:33.211Z,99872.17
2022-12-22T07:24:38.707Z,99871.22
2022-12-22T07:29:44.272Z,99864.09
2022-12-22T07:34:49.645Z,99858.00
2022-12-22T07:39:55.763Z,99851.60
2022-12-22T07:45:01.237Z,99847.39
2022-12-22T07:50:26.009Z,99837.91
2022-12-22T07:55:34.537Z,99831.13
2022-12-22T08:00:40.068Z,99830.00
2022-12-22T08:05:46.456Z,99828.67
2022-12-22T08:10:52.011Z,99830.58
2022-12-22T08:15:57.476Z,99834.09
2022-12-22T08:21:04.398Z,99837.30
2022-12-22T08:26:12.855Z,99834.26
2022-12-22T08:31:19.668Z,99825.63
2022-12-22T08:36:25.936Z,99813.90
2022-12-22T08:41:50.365Z,99811.23
2022-12-22T08:46:57.975Z,99800.16
2022-12-22T08:52:03.799Z,99801.81
2022-12-22T08:57:09.333Z,99803.23
2022-12-22T09:02:15.076Z,99805.23
2022-12-22T09:07:21.299Z,99796.63
2022-12-22T09:12:26.769Z,99776.27
2022-12-22T09:17:32.170Z,99790.45
2022-12-22T09:22:37.628Z,99785.30
2022-12-22T09:27:43.082Z,99774.17
2022-12-22T09:32:48.605Z,99774.73
2022-12-22T09:37:54.001Z,99774.69
2022-12-22T09:43:00.210Z,99772.50
2022-12-22T09:48:07.724Z,99760.26
2022-12-22T09:53:19.037Z,99762.13
2022-12-22T09:58:30.805Z,99750.78
2022-12-22T10:04:00.378Z,99748.31
2022-12-22T10:09:44.162Z,99744.41
2022-12-22T10:14:23.054Z,99740.58
2022-12-22T10:19:28.462Z,99733.94
2022-12-22T10:24:36.826Z,99730.49
2022-12-22T10:29:42.903Z,99725.66
2022-12-22T10:35:03.444Z,99721.66
2022-12-22T10:40:22.846Z,99716.30
2022-12-22T10:45:29.363Z,99714.48
2022-12-22T10:50:34.898Z,99706.14
2022-12-22T10:55:40.418Z,99703.20
2022-12-22T11:00:50.762Z,99707.00
2022-12-22T11:05:57.571Z,99697.84
2022-12-22T11:11:06.018Z,99687.10
2022-12-22T11:16:17.704Z,99675.38
2022-12-22T11:21:38.246Z,99677.67
2022-12-22T11:26:52.285Z,99676.02
2022-12-22T11:32:00.717Z,99666.69
2022-12-22T11:37:30.278Z,99664.08
2022-12-22T11:42:38.778Z,99656.60
2022-12-22T11:47:50.200Z,99645.57
2022-12-22T11:53:17.199Z,99642.89
2022-12-22T11:58:45.347Z,99637.76
2022-12-22T12:04:05.515Z,99633.00
2022-12-22T12:09:28.853Z,99630.52
2022-12-22T12:15:07.548Z,99629.33
2022-12-22T12:20:32.991Z,99624.77
2022-12-22T12:25:47.577Z,99618.39
2022-12-22T12:30:59.429Z,99600.36
2022-12-22T12:36:13.444Z,99603.31
2022-12-22T12:41:24.925Z,99603.16
2022-12-22T12:46:48.861Z,99612.41
2022-12-22T12:51:55.458Z,99609.24
2022-12-22T12:57:09.775Z,99602.63
2022-12-22T13:02:33.438Z,99597.27
2022-12-22T13:08:11.436Z,99596.01
2022-12-22T13:13:29.124Z,99588.53
2022-12-22T13:18:44.321Z,99583.16
2022-12-22T13:24:24.035Z,99586.12
2022-12-22T13:29:18.890Z,99580.05
2022-12-22T13:34:31.011Z,99571.04
2022-12-22T13:39:36.471Z,99574.36
2022-12-22T13:44:42.148Z,99573.53
2022-12-22T13:54:55.420Z,99582.72
2022-12-22T14:00:00.951Z,99590.23
2022-12-22T14:05:10.895Z,99593.42
2022-12-22T14:10:16.352Z,99599.64
2022-12-22T14:15:22.548Z,99622.33
2022-12-22T14:20:32.379Z,99634.46
2022-12-22T14:25:43.875Z,99630.56
2022-12-22T14:30:52.387Z,99635.03
2022-12-22T14:36:20.832Z,99632.02
2022-12-22T14:41:44.402Z,99652.84
2022-12-22T14:47:20.473Z,99664.41
2022-12-22T14:52:41.039Z,99662.97
2022-12-22T14:57:46.564Z,99655.58
2022-12-22T15:03:01.806Z,99665.16
2022-12-22T15:08:10.320Z,99665.16
2022-12-22T15:13:22.537Z,99669.02
2022-12-22T15:18:29.750Z,99673.83
2022-12-22T15:23:35.212Z,99670.79
2022-12-22T15:28:40.687Z,99665.16
2022-12-22T15:33:46.908Z,99668.88
2022-12-22T15:38:52.503Z,99673.25
2022-12-22T15:43:59.240Z,99675.44
2022-12-22T15:49:05.573Z,99689.27
2022-12-22T15:54:13.996Z,99694.61
2022-12-22T15:59:22.575Z,99699.26
2022-12-22T16:04:28.667Z,99691.16
2022-12-22T16:09:43.250Z,99689.92
2022-12-22T16:14:51.683Z,99674.25
2022-12-22T16:19:57.163Z,99681.97
2022-12-22T16:25:05.515Z,99683.27
2022-12-22T16:30:17.014Z,99699.76
2022-12-22T16:35:25.419Z,99709.09
2022-12-22T16:40:33.726Z,99713.47
2022-12-22T16:45:39.600Z,99720.59
2022-12-22T16:50:47.972Z,99720.00
2022-12-22T16:55:53.429Z,99732.58
2022-12-22T17:00:58.966Z,99739.30
2022-12-22T17:06:05.900Z,99737.38
2022-12-22T17:11:14.110Z,99739.80
2022-12-22T17:16:22.047Z,99743.05
2022-12-22T17:21:29.892Z,99748.20
2022-12-22T17:26:37.865Z,99756.47
2022-12-22T17:31:43.479Z,99763.63
2022-12-22T17:36:50.402Z,99760.95
2022-12-22T17:41:57.532Z,99765.91
2022-12-22T17:47:03.207Z,99770.21
2022-12-22T17:52:17.822Z,99770.17
2022-12-22T17:57:26.206Z,99773.36
2022-12-22T18:02:31.840Z,99771.08
2022-12-22T18:07:43.896Z,99784.41
2022-12-22T18:12:46.198Z,99785.06
2022-12-22T18:17:52.703Z,99791.64
2022-12-22T18:23:02.360Z,99788.49
2022-12-22T18:28:09.978Z,99798.01
2022-12-22T18:33:15.512Z,99799.47
2022-12-22T18:38:30.490Z,99802.70
2022-12-22T18:43:35.993Z,99802.83
2022-12-22T18:48:41.520Z,99795.02
2022-12-22T18:53:47.421Z,99799.68
2022-12-22T18:58:52.961Z,99798.25
2022-12-22T19:03:59.287Z,99802.73
2022-12-22T19:09:04.897Z,99815.53
2022-12-22T19:14:22.315Z,99822.55
2022-12-22T19:19:27.780Z,99823.88
2022-12-22T19:24:33.162Z,99819.31
2022-12-22T19:29:38.764Z,99823.02
2022-12-22T19:34:44.155Z,99827.12
2022-12-22T19:39:49.742Z,99844.41
2022-12-22T19:44:55.290Z,99841.28
2022-12-22T19:50:01.083Z,99844.77
2022-12-22T19:55:07.217Z,99850.06
2022-12-22T20:00:24.444Z,99842.21
2022-12-22T20:05:32.212Z,99841.53
2022-12-22T20:10:40.063Z,99835.73
2022-12-22T20:15:46.690Z,99836.50
2022-12-22T20:20:57.498Z,99845.64
2022-12-22T20:26:05.762Z,99838.70
2022-12-22T20:31:14.702Z,99842.47
2022-12-22T20:36:31.122Z,99842.30
2022-12-22T20:41:36.655Z,99833.87
2022-12-22T20:46:47.971Z,99831.98
2022-12-22T20:52:00.819Z,99833.87
2022-12-22T20:57:06.817Z,99839.80
2022-12-22T21:02:24.466Z,99845.16
2022-12-22T21:07:30.353Z,99851.08
2022-12-22T21:12:37.691Z,99850.34
2022-12-22T21:17:46.119Z,99854.23
2022-12-22T21:22:50.649Z,99853.30
2022-12-22T21:27:56.581Z,99855.30
2022-12-22T21:33:02.050Z,99867.42
2022-12-22T21:38:07.643Z,99867.98
2022-12-22T21:43:13.484Z,99875.87
2022-12-22T21:48:21.229Z,99870.90
2022-12-22T21:53:26.789Z,99868.41
2022-12-22T21:58:32.287Z,99861.08
2022-12-22T22:03:48.510Z,99863.66
2022-12-22T22:08:56.046Z,99870.69
2022-12-22T22:14:01.653Z,99862.02
2022-12-22T22:19:19.935Z,99865.27
2022-12-22T22:24:25.484Z,99871.33
2022-12-22T22:29:31.022Z,99856.66
2022-12-22T22:34:36.500Z,99852.06
2022-12-22T22:39:42.134Z,99849.55
2022-12-22T22:44:47.595Z,99851.52
2022-12-22T22:49:52.986Z,99845.12
2022-12-22T22:54:58.524Z,99836.20
2022-12-22T23:00:05.323Z,99844.48
2022-12-22T23:05:16.950Z,99839.63
2022-12-22T23:10:19.063Z,99836.91
2022-12-22T23:15:24.562Z,99835.65
2022-12-22T23:20:30.028Z,99834.08
2022-12-22T23:25:35.527Z,99814.61
2022-12-22T23:30:42.754Z,99820.02
2022-12-22T23:35:50.178Z,99816.50
2022-12-22T23:41:07.524Z,99825.81
2022-12-22T23:46:16.018Z,99821.23
2022-12-22T23:51:23.162Z,99827.49
2022-12-22T23:56:30.253Z,99821.14
